createdAt,value
2023-05-17T00:01:23.785Z,7.40
2023-05-17T00:04:28.829Z,7.47
2023-05-17T00:07:34.283Z,6.68
2023-05-17T00:10:39.294Z,6.65
2023-05-17T00:13:46.035Z,6.55
2023-05-17T00:16:52.729Z,7.07
2023-05-17T00:19:58.189Z,6.70
2023-05-17T00:23:03.212Z,8.23
2023-05-17T00:26:08.305Z,6.78
2023-05-17T00:29:14.644Z,7.03
2023-05-17T00:32:21.201Z,6.65
2023-05-17T00:35:26.918Z,6.97
2023-05-17T00:38:32.141Z,7.18
2023-05-17T00:41:37.474Z,6.85
2023-05-17T00:44:44.453Z,7.05
2023-05-17T00:47:49.474Z,7.28
2023-05-17T00:50:54.635Z,7.22
2023-05-17T00:53:59.977Z,7.10
2023-05-17T00:57:06.580Z,6.72
2023-05-17T01:00:15.719Z,6.07
2023-05-17T01:03:22.729Z,6.40
2023-05-17T01:06:29.215Z,6.53
2023-05-17T01:09:34.434Z,6.72
2023-05-17T01:12:52.440Z,6.43
2023-05-17T01:16:06.900Z,7.30
2023-05-17T01:19:20.799Z,6.68
2023-05-17T01:22:33.952Z,6.82
2023-05-17T01:25:51.049Z,6.72
2023-05-17T01:28:58.897Z,6.75
2023-05-17T01:32:05.222Z,6.60
2023-05-17T01:35:13.698Z,7.20
2023-05-17T01:38:18.752Z,6.57
2023-05-17T01:41:28.514Z,6.80
2023-05-17T01:44:39.689Z,6.53
2023-05-17T01:47:50.023Z,6.45
2023-05-17T01:50:56.694Z,6.82
2023-05-17T01:54:05.320Z,6.50
2023-05-17T01:57:12.132Z,6.55
2023-05-17T02:00:19.727Z,7.38
2023-05-17T02:03:25.288Z,6.80
2023-05-17T02:06:33.241Z,6.47
2023-05-17T02:09:38.250Z,6.57
2023-05-17T02:12:47.338Z,7.00
2023-05-17T02:15:53.727Z,6.88
2023-05-17T02:18:58.960Z,6.43
2023-05-17T02:22:04.047Z,6.25
2023-05-17T02:25:10.177Z,6.90
2023-05-17T02:28:18.381Z,6.65
2023-05-17T02:31:26.758Z,5.80
2023-05-17T02:34:31.852Z,6.18
2023-05-17T02:37:37.178Z,7.05
2023-05-17T02:40:43.697Z,6.93
2023-05-17T02:43:48.759Z,6.80
2023-05-17T02:46:55.132Z,6.60
2023-05-17T02:50:00.319Z,6.72
2023-05-17T02:53:06.004Z,10.23
2023-05-17T02:56:13.551Z,6.57
2023-05-17T02:59:18.537Z,6.38
2023-05-17T03:02:25.339Z,6.25
2023-05-17T03:05:30.438Z,5.75
2023-05-17T03:08:35.617Z,5.68
2023-05-17T03:11:41.409Z,5.80
2023-05-17T03:14:54.196Z,5.47
2023-05-17T03:18:01.918Z,5.97
2023-05-17T03:21:07.952Z,5.72
2023-05-17T03:24:13.037Z,5.90
2023-05-17T03:27:19.016Z,5.55
2023-05-17T03:30:24.603Z,5.40
2023-05-17T03:33:31.502Z,5.32
2023-05-17T03:36:37.514Z,5.60
2023-05-17T03:39:43.595Z,8.02
2023-05-17T03:42:49.092Z,5.13
2023-05-17T03:45:54.125Z,5.40
2023-05-17T03:49:00.774Z,4.97
2023-05-17T03:52:07.315Z,6.30
2023-05-17T03:55:13.667Z,7.18
2023-05-17T03:58:19.043Z,5.30
2023-05-17T04:01:24.073Z,5.20
2023-05-17T04:04:30.610Z,5.50
2023-05-17T04:07:35.641Z,5.57
2023-05-17T04:10:42.431Z,5.07
2023-05-17T04:13:47.438Z,5.32
2023-05-17T04:16:53.526Z,5.45
2023-05-17T04:19:59.902Z,5.70
2023-05-17T04:23:04.999Z,5.32
2023-05-17T04:26:15.143Z,5.47
2023-05-17T04:29:23.844Z,5.50
2023-05-17T04:32:29.762Z,10.00
2023-05-17T04:35:37.811Z,4.80
2023-05-17T04:38:43.749Z,5.60
2023-05-17T04:41:52.446Z,5.18
2023-05-17T04:44:58.461Z,7.50
2023-05-17T04:48:04.968Z,5.00
2023-05-17T04:51:13.149Z,7.28
2023-05-17T04:54:18.454Z,5.50
2023-05-17T04:57:23.624Z,8.57
2023-05-17T05:00:37.715Z,5.25
2023-05-17T05:03:44.534Z,5.32
2023-05-17T05:06:53.270Z,5.75
2023-05-17T05:09:58.671Z,5.65
2023-05-17T05:13:03.895Z,10.15
2023-05-17T05:16:09.781Z,8.63
2023-05-17T05:19:16.022Z,6.82
2023-05-17T05:22:23.254Z,6.43
2023-05-17T05:25:29.509Z,5.13
2023-05-17T05:28:34.897Z,4.97
2023-05-17T05:31:40.054Z,5.82
2023-05-17T05:34:46.904Z,7.75
2023-05-17T05:37:55.023Z,5.00
2023-05-17T05:41:00.041Z,4.90
2023-05-17T05:44:05.502Z,4.35
2023-05-17T05:47:11.286Z,4.65
2023-05-17T05:50:16.370Z,4.55
2023-05-17T05:53:25.163Z,4.35
2023-05-17T05:56:33.124Z,4.60
2023-05-17T05:59:38.265Z,5.47
2023-05-17T06:02:43.916Z,5.40
2023-05-17T06:05:49.027Z,4.88
2023-05-17T06:08:58.150Z,4.35
2023-05-17T06:12:04.573Z,4.50
2023-05-17T06:15:10.866Z,3.78
2023-05-17T06:18:15.915Z,3.78
2023-05-17T06:21:23.600Z,3.35
2023-05-17T06:24:30.016Z,3.67
2023-05-17T06:27:35.188Z,3.95
2023-05-17T06:30:40.289Z,3.97
2023-05-17T06:33:45.504Z,3.67
2023-05-17T06:36:50.479Z,3.90
2023-05-17T06:43:14.488Z,4.00
2023-05-17T06:46:19.685Z,3.70
2023-05-17T06:49:25.436Z,4.07
2023-05-17T06:52:30.461Z,3.67
2023-05-17T06:55:36.871Z,3.58
2023-05-17T06:58:42.085Z,3.25
2023-05-17T07:01:47.133Z,5.85
2023-05-17T07:04:52.184Z,3.00
2023-05-17T07:07:57.304Z,2.75
2023-05-17T07:11:04.386Z,2.70
2023-05-17T07:14:09.403Z,3.10
2023-05-17T07:17:14.456Z,2.80
2023-05-17T07:20:19.440Z,2.40
2023-05-17T07:23:24.627Z,2.80
2023-05-17T07:26:31.992Z,2.85
2023-05-17T07:29:37.102Z,2.45
2023-05-17T07:32:42.104Z,2.33
2023-05-17T07:35:47.231Z,4.55
2023-05-17T07:38:52.521Z,2.40
2023-05-17T07:41:58.899Z,2.30
2023-05-17T07:45:04.781Z,2.92
2023-05-17T07:48:09.973Z,2.65
2023-05-17T07:51:15.107Z,2.40
2023-05-17T07:54:28.066Z,2.10
2023-05-17T07:57:34.756Z,1.55
2023-05-17T08:00:41.138Z,1.30
2023-05-17T08:03:48.320Z,1.20
2023-05-17T08:06:55.357Z,3.30
2023-05-17T08:10:00.317Z,1.45
2023-05-17T08:13:08.008Z,1.10
2023-05-17T08:16:15.103Z,1.10
2023-05-17T08:19:20.629Z,0.80
2023-05-17T08:22:26.499Z,1.10
2023-05-17T08:25:32.240Z,1.02
2023-05-17T08:28:39.001Z,1.17
2023-05-17T08:31:44.003Z,1.35
2023-05-17T08:34:49.045Z,3.63
2023-05-17T08:37:54.130Z,1.20
2023-05-17T08:41:00.054Z,1.35
2023-05-17T08:44:07.502Z,1.52
2023-05-17T08:47:14.720Z,1.40
2023-05-17T08:50:22.059Z,1.48
2023-05-17T08:53:27.501Z,1.40
2023-05-17T08:56:33.099Z,1.85
2023-05-17T08:59:40.472Z,3.67
2023-05-17T09:02:46.084Z,1.58
2023-05-17T09:05:53.819Z,1.40
2023-05-17T09:09:01.569Z,1.45
2023-05-17T09:12:08.747Z,5.72
2023-05-17T09:15:16.777Z,3.13
2023-05-17T09:18:25.308Z,1.20
2023-05-17T09:21:31.879Z,0.90
2023-05-17T09:24:38.118Z,1.45
2023-05-17T09:27:43.346Z,1.75
2023-05-17T09:30:50.690Z,1.33
2023-05-17T09:33:55.935Z,2.22
2023-05-17T09:37:02.592Z,5.75
2023-05-17T09:40:09.592Z,2.63
2023-05-17T09:43:17.061Z,1.98
2023-05-17T09:46:23.566Z,0.70
2023-05-17T09:49:29.731Z,1.92
2023-05-17T09:52:37.755Z,1.45
2023-05-17T09:55:43.400Z,0.90
2023-05-17T09:58:49.389Z,0.98
2023-05-17T10:01:56.438Z,1.08
2023-05-17T10:05:02.125Z,0.70
2023-05-17T10:08:07.857Z,0.80
2023-05-17T10:11:14.303Z,0.80
2023-05-17T10:14:23.712Z,0.60
2023-05-17T10:17:30.824Z,0.60
2023-05-17T10:20:35.929Z,1.95
2023-05-17T10:23:42.204Z,0.60
2023-05-17T10:26:47.244Z,1.00
2023-05-17T10:29:52.388Z,1.40
2023-05-17T10:32:58.997Z,0.93
2023-05-17T10:36:04.522Z,2.65
2023-05-17T10:39:10.759Z,1.13
2023-05-17T10:42:17.810Z,0.77
2023-05-17T10:45:25.494Z,1.30
2023-05-17T10:48:32.124Z,1.10
2023-05-17T10:51:38.765Z,0.70
2023-05-17T10:54:45.000Z,0.80
2023-05-17T10:58:16.257Z,0.80
2023-05-17T11:01:55.391Z,0.70
2023-05-17T11:05:02.734Z,0.70
2023-05-17T11:08:19.287Z,0.73
2023-05-17T11:11:25.287Z,0.80
2023-05-17T11:14:33.481Z,1.20
2023-05-17T11:17:50.275Z,0.80
2023-05-17T11:21:09.540Z,0.90
2023-05-17T11:24:17.425Z,0.88
2023-05-17T11:27:27.478Z,0.73
2023-05-17T11:30:33.424Z,0.80
2023-05-17T11:33:43.639Z,2.92
2023-05-17T11:36:54.573Z,0.90
2023-05-17T11:40:07.162Z,0.90
2023-05-17T11:43:13.962Z,0.77
2023-05-17T11:46:23.134Z,0.80
2023-05-17T11:52:42.410Z,0.95
2023-05-17T11:55:49.005Z,1.45
2023-05-17T11:58:54.198Z,1.58
2023-05-17T12:01:59.250Z,1.95
2023-05-17T12:05:04.353Z,2.05
2023-05-17T12:08:10.992Z,0.90
2023-05-17T12:11:18.012Z,0.70
2023-05-17T12:14:22.992Z,2.17
2023-05-17T12:17:37.125Z,0.70
2023-05-17T12:20:55.693Z,0.88
2023-05-17T12:24:02.102Z,1.25
2023-05-17T12:27:07.524Z,1.00
2023-05-17T12:30:17.294Z,0.90
2023-05-17T12:33:22.506Z,0.98
2023-05-17T12:36:28.537Z,0.98
2023-05-17T12:39:34.932Z,0.88
2023-05-17T12:42:43.915Z,1.02
2023-05-17T12:45:49.714Z,2.28
2023-05-17T12:48:55.039Z,11.57
2023-05-17T12:52:06.255Z,0.85
2023-05-17T12:55:16.538Z,1.90
2023-05-17T12:58:21.756Z,0.80
2023-05-17T13:01:26.801Z,0.82
2023-05-17T13:04:33.364Z,0.73
2023-05-17T13:07:38.808Z,0.60
2023-05-17T13:10:45.516Z,0.80
2023-05-17T13:13:50.650Z,0.80
2023-05-17T13:16:56.014Z,0.70
2023-05-17T13:20:02.177Z,0.70
2023-05-17T13:23:08.454Z,0.70
2023-05-17T13:26:15.158Z,0.82
2023-05-17T13:29:35.288Z,0.80
2023-05-17T13:32:44.647Z,0.82
2023-05-17T13:35:49.845Z,0.60
2023-05-17T13:38:56.821Z,0.70
2023-05-17T13:42:03.638Z,0.70
2023-05-17T13:45:11.753Z,0.70
2023-05-17T13:48:17.577Z,0.80
2023-05-17T13:51:22.702Z,0.82
2023-05-17T13:54:27.860Z,2.40
2023-05-17T13:57:34.357Z,0.70
2023-05-17T14:00:41.320Z,0.70
2023-05-17T14:03:46.521Z,0.70
2023-05-17T14:06:55.068Z,0.65
2023-05-17T14:10:00.940Z,0.68
2023-05-17T14:13:07.920Z,0.70
2023-05-17T14:16:13.800Z,1.02
2023-05-17T14:19:18.833Z,1.05
2023-05-17T14:22:23.887Z,1.13
2023-05-17T14:25:29.045Z,0.70
2023-05-17T14:28:38.336Z,0.70
2023-05-17T14:31:43.502Z,0.75
2023-05-17T14:34:48.477Z,0.70
2023-05-17T14:37:53.554Z,0.75
2023-05-17T14:40:59.054Z,0.70
2023-05-17T14:44:05.608Z,0.90
2023-05-17T14:47:11.617Z,0.70
2023-05-17T14:50:16.687Z,1.02
2023-05-17T14:53:21.727Z,0.80
2023-05-17T14:56:27.066Z,0.60
2023-05-17T14:59:33.469Z,0.90
2023-05-17T15:02:38.554Z,0.80
2023-05-17T15:05:43.592Z,0.90
2023-05-17T15:08:48.884Z,0.77
2023-05-17T15:11:54.602Z,0.70
2023-05-17T15:15:01.178Z,0.75
2023-05-17T15:18:06.779Z,0.90
2023-05-17T15:21:12.483Z,1.85
2023-05-17T15:24:17.997Z,1.25
2023-05-17T15:27:23.132Z,0.82
2023-05-17T15:30:29.552Z,0.80
2023-05-17T15:33:34.779Z,1.75
2023-05-17T15:36:39.847Z,0.90
2023-05-17T15:39:44.857Z,0.85
2023-05-17T15:42:51.211Z,2.25
2023-05-17T15:45:57.325Z,0.73
2023-05-17T15:49:02.459Z,1.13
2023-05-17T15:52:09.005Z,2.30
2023-05-17T15:55:14.058Z,0.90
2023-05-17T15:58:19.517Z,0.98
2023-05-17T16:01:26.002Z,0.98
2023-05-17T16:04:31.429Z,1.08
2023-05-17T16:07:36.692Z,0.70
2023-05-17T16:10:41.730Z,0.80
2023-05-17T16:13:46.737Z,0.90
2023-05-17T16:16:53.641Z,0.75
2023-05-17T16:19:58.918Z,0.90
2023-05-17T16:23:04.037Z,0.90
2023-05-17T16:26:09.971Z,0.88
2023-05-17T16:29:16.955Z,0.80
2023-05-17T16:32:23.507Z,18.45
2023-05-17T16:35:29.127Z,0.80
2023-05-17T16:38:34.381Z,0.77
2023-05-17T16:41:39.642Z,0.90
2023-05-17T16:44:44.647Z,0.90
2023-05-17T16:47:51.150Z,1.00
2023-05-17T16:50:56.305Z,0.90
2023-05-17T16:54:01.594Z,2.38
2023-05-17T16:57:08.534Z,0.88
2023-05-17T17:00:15.743Z,1.13
2023-05-17T17:03:22.213Z,0.90
2023-05-17T17:06:28.641Z,0.88
2023-05-17T17:09:33.714Z,0.80
2023-05-17T17:12:39.106Z,1.02
2023-05-17T17:15:44.453Z,0.88
2023-05-17T17:18:50.944Z,0.90
2023-05-17T17:21:56.244Z,0.75
2023-05-17T17:25:01.369Z,1.00
2023-05-17T17:28:06.882Z,0.98
2023-05-17T17:31:14.174Z,2.72
2023-05-17T17:34:20.560Z,1.00
2023-05-17T17:37:25.597Z,0.98
2023-05-17T17:40:30.938Z,1.85
2023-05-17T17:43:36.363Z,1.38
2023-05-17T17:46:41.479Z,1.20
2023-05-17T17:49:48.196Z,1.17
2023-05-17T17:52:53.342Z,1.00
2023-05-17T17:55:58.432Z,1.10
2023-05-17T17:59:03.564Z,1.15
2023-05-17T18:02:09.169Z,1.05
2023-05-17T18:05:15.734Z,1.30
2023-05-17T18:08:21.028Z,3.33
2023-05-17T18:11:26.217Z,7.18
2023-05-17T18:14:31.223Z,3.35
2023-05-17T18:17:36.448Z,2.17
2023-05-17T18:20:43.443Z,2.75
2023-05-17T18:23:48.623Z,2.58
2023-05-17T18:26:54.216Z,3.05
2023-05-17T18:29:59.577Z,1.17
2023-05-17T18:33:06.827Z,1.27
2023-05-17T18:36:13.825Z,2.33
2023-05-17T18:39:18.836Z,5.63
2023-05-17T18:42:25.113Z,8.45
2023-05-17T18:45:31.874Z,2.92
2023-05-17T18:48:37.080Z,1.65
2023-05-17T18:51:43.529Z,1.17
2023-05-17T18:54:48.796Z,4.18
2023-05-17T18:57:53.906Z,1.20
2023-05-17T19:01:00.253Z,0.98
2023-05-17T19:04:05.631Z,1.42
2023-05-17T19:07:13.024Z,1.05
2023-05-17T19:10:18.471Z,1.23
2023-05-17T19:13:23.509Z,1.10
2023-05-17T19:16:28.659Z,1.05
2023-05-17T19:19:33.755Z,0.93
2023-05-17T19:22:40.707Z,1.15
2023-05-17T19:25:45.882Z,0.98
2023-05-17T19:28:51.193Z,1.25
2023-05-17T19:31:56.516Z,1.40
2023-05-17T19:35:02.412Z,1.40
2023-05-17T19:38:08.968Z,2.67
2023-05-17T19:41:14.084Z,1.70
2023-05-17T19:44:19.162Z,1.30
2023-05-17T19:47:24.235Z,1.00
2023-05-17T19:50:29.780Z,3.80
2023-05-17T19:53:50.867Z,6.28
2023-05-17T19:56:57.668Z,1.00
2023-05-17T20:00:03.107Z,1.10
2023-05-17T20:03:09.958Z,1.27
2023-05-17T20:06:15.410Z,1.40
2023-05-17T20:09:21.953Z,1.63
2023-05-17T20:12:27.560Z,1.75
2023-05-17T20:15:32.627Z,1.50
2023-05-17T20:18:37.761Z,3.03
2023-05-17T20:25:25.451Z,2.75
2023-05-17T20:28:30.765Z,1.60
2023-05-17T20:31:36.764Z,1.50
2023-05-17T20:34:41.933Z,3.00
2023-05-17T20:37:46.949Z,4.55
2023-05-17T20:40:53.783Z,3.13
2023-05-17T20:43:59.226Z,2.60
2023-05-17T20:47:08.826Z,2.88
2023-05-17T20:50:14.321Z,1.70
2023-05-17T20:53:19.817Z,1.73
2023-05-17T20:56:26.160Z,1.45
2023-05-17T20:59:31.179Z,1.55
2023-05-17T21:02:36.408Z,3.20
2023-05-17T21:05:41.527Z,4.03
2023-05-17T21:08:47.112Z,2.78
2023-05-17T21:11:53.625Z,2.75
2023-05-17T21:15:15.182Z,4.20
2023-05-17T21:18:21.403Z,2.80
2023-05-17T21:21:26.405Z,3.17
2023-05-17T21:24:31.428Z,2.42
2023-05-17T21:27:38.176Z,2.45
2023-05-17T21:30:43.345Z,3.08
2023-05-17T21:33:49.697Z,2.60
2023-05-17T21:36:54.898Z,2.33
2023-05-17T21:40:00.169Z,1.73
2023-05-17T21:43:06.952Z,1.85
2023-05-17T21:46:12.490Z,2.78
2023-05-17T21:49:17.513Z,1.40
2023-05-17T21:52:22.606Z,1.77
2023-05-17T21:55:32.363Z,1.23
2023-05-17T21:58:47.464Z,1.13
2023-05-17T22:01:52.501Z,1.17
2023-05-17T22:04:57.889Z,1.60
2023-05-17T22:08:02.874Z,1.00
2023-05-17T22:11:08.003Z,0.90
2023-05-17T22:14:14.438Z,0.95
2023-05-17T22:17:19.487Z,1.65
2023-05-17T22:20:26.359Z,1.05
2023-05-17T22:23:31.501Z,0.95
2023-05-17T22:26:36.512Z,1.35
2023-05-17T22:29:43.896Z,1.10
2023-05-17T22:32:51.054Z,1.30
2023-05-17T22:35:56.367Z,1.42
2023-05-17T22:39:01.517Z,1.30
2023-05-17T22:42:07.525Z,2.08
2023-05-17T22:45:14.681Z,1.38
2023-05-17T22:48:20.787Z,1.10
2023-05-17T22:51:26.002Z,2.78
2023-05-17T22:54:31.085Z,1.40
2023-05-17T22:57:36.167Z,1.15
2023-05-17T23:00:42.967Z,1.00
2023-05-17T23:03:48.111Z,1.00
2023-05-17T23:06:53.982Z,3.42
2023-05-17T23:09:58.984Z,1.17
2023-05-17T23:13:04.561Z,1.38
2023-05-17T23:16:13.976Z,1.20
2023-05-17T23:19:19.266Z,1.08
2023-05-17T23:22:24.264Z,1.33
2023-05-17T23:25:29.702Z,3.42
2023-05-17T23:28:35.588Z,1.75
2023-05-17T23:31:44.905Z,1.23
2023-05-17T23:34:50.465Z,1.30
2023-05-17T23:37:55.493Z,1.70
2023-05-17T23:41:01.099Z,2.47
2023-05-17T23:44:06.458Z,1.02
2023-05-17T23:47:13.469Z,1.20
2023-05-17T23:50:18.523Z,1.00
2023-05-17T23:53:26.166Z,1.00
2023-05-17T23:56:31.258Z,1.00
2023-05-17T23:59:36.787Z,1.92
